createdAt,value
2017-07-23T00:00:28.169Z,0
2017-07-23T00:01:08.708Z,0
2017-07-23T00:01:49.240Z,0
2017-07-23T00:02:29.778Z,0
2017-07-23T00:03:10.302Z,0
2017-07-23T00:03:50.837Z,0
2017-07-23T00:04:31.383Z,0
2017-07-23T00:05:11.921Z,0
2017-07-23T00:05:52.463Z,0
2017-07-23T00:06:32.999Z,0
2017-07-23T00:07:13.540Z,0
2017-07-23T00:07:54.072Z,0
2017-07-23T00:08:34.596Z,0
2017-07-23T00:09:15.124Z,0
2017-07-23T00:09:55.656Z,0
2017-07-23T00:10:36.182Z,0
2017-07-23T00:11:16.706Z,0
2017-07-23T00:11:57.244Z,0
2017-07-23T00:12:37.790Z,0
2017-07-23T00:13:18.330Z,0
2017-07-23T00:13:58.849Z,0
2017-07-23T00:14:39.390Z,0
2017-07-23T00:15:19.911Z,0
2017-07-23T00:16:00.461Z,0
2017-07-23T00:16:40.999Z,0
2017-07-23T00:17:21.528Z,0
2017-07-23T00:18:02.057Z,0
2017-07-23T00:18:42.586Z,0
2017-07-23T00:19:23.123Z,0
2017-07-23T00:20:03.657Z,0
2017-07-23T00:20:44.185Z,0
2017-07-23T00:21:24.711Z,0
2017-07-23T00:22:05.240Z,0
2017-07-23T00:22:45.761Z,0
2017-07-23T00:23:26.306Z,0
2017-07-23T00:24:06.846Z,0
2017-07-23T00:24:47.360Z,0
2017-07-23T00:25:27.892Z,0
2017-07-23T00:26:08.435Z,0
2017-07-23T00:26:48.980Z,0
2017-07-23T00:27:29.512Z,0
2017-07-23T00:28:10.056Z,0
2017-07-23T00:28:50.586Z,0
2017-07-23T00:29:31.115Z,0
2017-07-23T00:30:11.649Z,0
2017-07-23T00:30:52.186Z,0
2017-07-23T00:31:32.727Z,0
2017-07-23T00:32:13.259Z,0
2017-07-23T00:32:53.804Z,0
2017-07-23T00:33:34.339Z,0
2017-07-23T00:34:14.872Z,0
2017-07-23T00:34:55.406Z,0
2017-07-23T00:35:35.947Z,0
2017-07-23T00:36:16.525Z,0
2017-07-23T00:36:57.066Z,0
2017-07-23T00:37:37.597Z,0
2017-07-23T00:38:18.129Z,0
2017-07-23T00:38:58.669Z,0
2017-07-23T00:39:39.209Z,0
2017-07-23T00:40:19.754Z,0
2017-07-23T00:41:00.303Z,0
2017-07-23T00:41:40.796Z,0
2017-07-23T00:42:21.324Z,0
2017-07-23T00:43:01.865Z,0
2017-07-23T00:43:42.392Z,0
2017-07-23T00:44:22.922Z,0
2017-07-23T00:45:03.468Z,0
2017-07-23T00:45:43.993Z,0
2017-07-23T00:46:24.505Z,0
2017-07-23T00:47:05.121Z,0
2017-07-23T00:47:45.640Z,0
2017-07-23T00:48:26.183Z,0
2017-07-23T00:49:06.724Z,0
2017-07-23T00:49:47.258Z,0
2017-07-23T00:50:27.783Z,0
2017-07-23T00:51:08.308Z,0
2017-07-23T00:51:48.835Z,0
2017-07-23T00:52:29.372Z,0
2017-07-23T00:53:09.947Z,0
2017-07-23T00:53:50.493Z,0
2017-07-23T00:54:31.032Z,0
2017-07-23T00:55:11.561Z,0
2017-07-23T00:55:52.092Z,0
2017-07-23T00:56:32.630Z,0
2017-07-23T00:57:13.176Z,0
2017-07-23T00:57:53.705Z,0
2017-07-23T00:58:34.236Z,0
2017-07-23T00:59:14.772Z,0
2017-07-23T00:59:55.302Z,0
2017-07-23T01:00:35.834Z,0
2017-07-23T01:01:16.368Z,0
2017-07-23T01:01:56.894Z,0
2017-07-23T01:02:37.429Z,0
2017-07-23T01:03:17.971Z,0
2017-07-23T01:03:58.510Z,0
2017-07-23T01:04:39.042Z,0
2017-07-23T01:05:19.572Z,0
2017-07-23T01:06:00.098Z,0
2017-07-23T01:06:40.641Z,0
2017-07-23T01:07:21.173Z,0
2017-07-23T01:08:01.718Z,0
2017-07-23T01:08:42.249Z,0
2017-07-23T01:09:22.780Z,0
2017-07-23T01:10:03.318Z,0
2017-07-23T01:10:43.853Z,0
2017-07-23T01:11:24.415Z,0
2017-07-23T01:12:04.936Z,0
2017-07-23T01:12:45.479Z,0
2017-07-23T01:13:25.995Z,0
2017-07-23T01:14:06.525Z,0
2017-07-23T01:14:47.062Z,0
2017-07-23T01:15:27.598Z,0
2017-07-23T01:16:08.129Z,0
2017-07-23T01:16:48.680Z,0
2017-07-23T01:17:29.202Z,0
2017-07-23T01:18:09.737Z,0
2017-07-23T01:18:50.276Z,0
2017-07-23T01:19:30.809Z,0
2017-07-23T01:20:11.354Z,0
2017-07-23T01:20:51.882Z,0
2017-07-23T01:21:32.444Z,0
2017-07-23T01:22:12.961Z,0
2017-07-23T01:22:53.499Z,0
2017-07-23T01:23:34.039Z,0
2017-07-23T01:24:14.555Z,0
2017-07-23T01:24:55.096Z,0
2017-07-23T01:25:35.625Z,0
2017-07-23T01:26:16.153Z,0
2017-07-23T01:26:56.693Z,0
2017-07-23T01:27:37.234Z,0
2017-07-23T01:28:17.763Z,0
2017-07-23T01:28:58.303Z,0
2017-07-23T01:29:38.863Z,0
2017-07-23T01:30:19.411Z,0
2017-07-23T01:30:59.954Z,0
2017-07-23T01:31:40.500Z,0
2017-07-23T01:32:21.034Z,0
2017-07-23T01:33:01.573Z,0
2017-07-23T01:33:42.109Z,0
2017-07-23T01:34:22.673Z,0
2017-07-23T01:35:03.207Z,0
2017-07-23T01:35:43.743Z,0
2017-07-23T01:36:24.281Z,0
2017-07-23T01:37:04.830Z,0
2017-07-23T01:37:45.369Z,0
2017-07-23T01:38:25.902Z,0
2017-07-23T01:39:06.454Z,0
2017-07-23T01:39:46.990Z,0
2017-07-23T01:40:27.522Z,0
2017-07-23T01:41:08.058Z,0
2017-07-23T01:41:48.578Z,0
2017-07-23T01:42:29.129Z,0
2017-07-23T01:43:09.671Z,0
2017-07-23T01:43:50.207Z,0
2017-07-23T01:44:30.739Z,0
2017-07-23T01:45:11.265Z,0
2017-07-23T01:45:51.802Z,0
2017-07-23T01:46:32.342Z,0
2017-07-23T01:47:12.870Z,0
2017-07-23T01:47:53.399Z,0
2017-07-23T01:48:33.921Z,0
2017-07-23T01:49:14.452Z,0
2017-07-23T01:49:54.972Z,0
2017-07-23T01:50:35.498Z,0
2017-07-23T01:51:16.066Z,0
2017-07-23T01:51:56.564Z,0
2017-07-23T01:52:37.082Z,0
2017-07-23T01:53:17.623Z,0
2017-07-23T01:53:58.145Z,0
2017-07-23T01:54:38.669Z,0
2017-07-23T01:55:19.198Z,0
2017-07-23T01:55:59.744Z,0
2017-07-23T01:56:40.267Z,0
2017-07-23T01:57:20.793Z,0
2017-07-23T01:58:01.315Z,0
2017-07-23T01:58:41.849Z,0
2017-07-23T01:59:22.396Z,0
2017-07-23T02:00:02.931Z,0
2017-07-23T02:00:43.488Z,0
2017-07-23T02:01:24.000Z,0
2017-07-23T02:02:04.536Z,0
2017-07-23T02:02:45.070Z,0
2017-07-23T02:03:25.615Z,0
2017-07-23T02:04:06.177Z,0
2017-07-23T02:04:46.717Z,0
2017-07-23T02:05:27.262Z,0
2017-07-23T02:06:07.795Z,0
2017-07-23T02:06:48.334Z,0
2017-07-23T02:07:28.877Z,0
2017-07-23T02:08:09.408Z,0
2017-07-23T02:08:49.932Z,0
2017-07-23T02:09:30.544Z,0
2017-07-23T02:10:11.096Z,0
2017-07-23T02:10:51.604Z,0
2017-07-23T02:11:32.132Z,0
2017-07-23T02:12:12.679Z,0
2017-07-23T02:12:53.214Z,0
2017-07-23T02:13:33.760Z,0
2017-07-23T02:14:14.298Z,0
2017-07-23T02:14:54.831Z,0
2017-07-23T02:15:35.384Z,0
2017-07-23T02:16:15.902Z,0
2017-07-23T02:16:56.439Z,0
2017-07-23T02:17:36.959Z,0
2017-07-23T02:18:17.511Z,0
2017-07-23T02:18:58.024Z,0
2017-07-23T02:19:38.554Z,0
2017-07-23T02:20:19.087Z,0
2017-07-23T02:20:59.624Z,0
2017-07-23T02:21:40.167Z,0
2017-07-23T02:22:20.739Z,0
2017-07-23T02:23:01.273Z,0
2017-07-23T02:23:41.809Z,0
2017-07-23T02:24:22.360Z,0
2017-07-23T02:25:02.912Z,0
2017-07-23T02:25:43.460Z,0
2017-07-23T02:26:23.996Z,0
2017-07-23T02:27:04.544Z,0
2017-07-23T02:27:45.062Z,0
2017-07-23T02:28:25.606Z,0
2017-07-23T02:29:06.140Z,0
2017-07-23T02:29:46.675Z,0
2017-07-23T02:30:27.207Z,0
2017-07-23T02:31:07.763Z,0
2017-07-23T02:31:48.309Z,0
2017-07-23T02:32:28.843Z,0
2017-07-23T02:33:09.379Z,0
2017-07-23T02:33:49.929Z,0
2017-07-23T02:34:30.463Z,0
2017-07-23T02:35:11.053Z,0
2017-07-23T02:35:51.569Z,0
2017-07-23T02:36:32.109Z,0
2017-07-23T02:37:12.646Z,0
2017-07-23T02:37:53.189Z,0
2017-07-23T02:38:33.738Z,0
2017-07-23T02:39:14.276Z,0
2017-07-23T02:39:54.809Z,0
2017-07-23T02:40:35.355Z,0
2017-07-23T02:41:15.887Z,0
2017-07-23T02:41:56.425Z,0
2017-07-23T02:42:36.958Z,0
2017-07-23T02:43:17.572Z,0
2017-07-23T02:43:58.094Z,0
2017-07-23T02:44:38.627Z,0
2017-07-23T02:45:19.166Z,0
2017-07-23T02:45:59.704Z,0
2017-07-23T02:46:40.253Z,0
2017-07-23T02:47:20.811Z,0
2017-07-23T02:48:01.352Z,0
2017-07-23T02:48:41.892Z,0
2017-07-23T02:49:22.435Z,0
2017-07-23T02:50:02.970Z,0
2017-07-23T02:50:43.515Z,0
2017-07-23T02:51:24.041Z,0
2017-07-23T02:52:04.578Z,0
2017-07-23T02:52:45.122Z,0
2017-07-23T02:53:25.648Z,0
2017-07-23T02:54:06.198Z,0
2017-07-23T02:54:46.737Z,0
2017-07-23T02:55:27.282Z,0
2017-07-23T02:56:07.820Z,0
2017-07-23T02:56:48.341Z,0
2017-07-23T02:57:28.876Z,0
2017-07-23T02:58:09.408Z,0
2017-07-23T02:58:49.934Z,0
2017-07-23T02:59:30.475Z,0
2017-07-23T03:00:11.011Z,0
2017-07-23T03:00:51.543Z,0
2017-07-23T03:01:32.064Z,0
2017-07-23T03:02:12.592Z,0
2017-07-23T03:02:53.137Z,0
2017-07-23T03:03:33.644Z,0
2017-07-23T03:04:14.173Z,0
2017-07-23T03:04:54.700Z,0
2017-07-23T03:05:35.249Z,0
2017-07-23T03:06:15.786Z,0
2017-07-23T03:06:56.331Z,0
2017-07-23T03:07:36.845Z,0
2017-07-23T03:08:17.377Z,0
2017-07-23T03:08:57.914Z,0
2017-07-23T03:09:38.523Z,0
2017-07-23T03:10:19.059Z,0
2017-07-23T03:10:59.604Z,0
2017-07-23T03:11:40.105Z,0
2017-07-23T03:12:20.638Z,0
2017-07-23T03:13:01.172Z,0
2017-07-23T03:13:41.698Z,0
2017-07-23T03:14:22.240Z,0
2017-07-23T03:15:02.776Z,0
2017-07-23T03:15:43.318Z,0
2017-07-23T03:16:23.854Z,0
2017-07-23T03:17:04.388Z,0
2017-07-23T03:17:44.923Z,0
2017-07-23T03:18:25.454Z,0
2017-07-23T03:19:05.995Z,0
2017-07-23T03:19:46.521Z,0
2017-07-23T03:20:27.057Z,0
2017-07-23T03:21:07.591Z,0
2017-07-23T03:21:48.126Z,0
2017-07-23T03:22:28.661Z,0
2017-07-23T03:23:09.186Z,0
2017-07-23T03:23:49.701Z,0
2017-07-23T03:24:30.244Z,0
2017-07-23T03:25:10.793Z,0
2017-07-23T03:25:51.324Z,0
2017-07-23T03:26:31.836Z,0
2017-07-23T03:27:12.366Z,0
2017-07-23T03:27:52.966Z,0
2017-07-23T03:28:33.506Z,0
2017-07-23T03:29:14.045Z,0
2017-07-23T03:29:54.587Z,0
2017-07-23T03:30:35.119Z,0
2017-07-23T03:31:15.675Z,0
2017-07-23T03:31:56.211Z,0
2017-07-23T03:32:36.742Z,0
2017-07-23T03:33:17.259Z,0
2017-07-23T03:33:57.777Z,0
2017-07-23T03:34:38.320Z,0
2017-07-23T03:35:18.862Z,0
2017-07-23T03:35:59.382Z,0
2017-07-23T03:36:39.920Z,0
2017-07-23T03:37:20.435Z,0
2017-07-23T03:38:00.967Z,0
2017-07-23T03:38:41.504Z,0
2017-07-23T03:39:22.041Z,0
2017-07-23T03:40:02.576Z,0
2017-07-23T03:40:43.109Z,0
2017-07-23T03:41:23.647Z,0
2017-07-23T03:42:04.175Z,0
2017-07-23T03:42:44.718Z,0
2017-07-23T03:43:25.279Z,0
2017-07-23T03:44:05.812Z,0
2017-07-23T03:44:46.357Z,0
2017-07-23T03:45:26.899Z,0
2017-07-23T03:46:07.414Z,0
2017-07-23T03:46:47.951Z,0
2017-07-23T03:47:28.483Z,0
2017-07-23T03:48:09.025Z,0
2017-07-23T03:48:49.555Z,0
2017-07-23T03:49:30.083Z,0
2017-07-23T03:50:10.623Z,0
2017-07-23T03:50:51.148Z,0
2017-07-23T03:51:31.685Z,5
2017-07-23T03:52:12.218Z,0
2017-07-23T03:52:52.754Z,0
2017-07-23T03:53:33.287Z,5
2017-07-23T03:54:13.814Z,5
2017-07-23T03:54:54.355Z,5
2017-07-23T03:55:34.888Z,5
2017-07-23T03:56:15.442Z,5
2017-07-23T03:56:55.972Z,5
2017-07-23T03:57:36.511Z,5
2017-07-23T03:58:17.050Z,5
2017-07-23T03:58:57.585Z,5
2017-07-23T03:59:38.117Z,5
2017-07-23T04:00:18.649Z,5
2017-07-23T04:00:59.189Z,5
2017-07-23T04:01:39.722Z,5
2017-07-23T04:02:20.243Z,5
2017-07-23T04:03:00.780Z,5
2017-07-23T04:03:41.307Z,5
2017-07-23T04:04:21.845Z,5
2017-07-23T04:05:02.360Z,10
2017-07-23T04:05:42.885Z,10
2017-07-23T04:06:23.391Z,10
2017-07-23T04:07:03.926Z,15
2017-07-23T04:07:44.453Z,15
2017-07-23T04:08:24.987Z,15
2017-07-23T04:09:05.491Z,15
2017-07-23T04:09:45.993Z,15
2017-07-23T04:10:26.503Z,15
2017-07-23T04:11:07.068Z,15
2017-07-23T04:11:47.556Z,15
2017-07-23T04:12:28.072Z,15
2017-07-23T04:13:08.612Z,15
2017-07-23T04:13:49.143Z,15
2017-07-23T04:14:29.655Z,20
2017-07-23T04:15:10.185Z,20
2017-07-23T04:15:50.723Z,20
2017-07-23T04:16:33.190Z,25
2017-07-23T04:21:48.214Z,25
2017-07-23T04:22:42.494Z,25
2017-07-23T04:23:24.395Z,30
2017-07-23T04:24:45.002Z,30
2017-07-23T04:25:26.854Z,40
2017-07-23T04:29:35.841Z,50
2017-07-23T04:30:16.332Z,45
2017-07-23T04:30:56.901Z,45
2017-07-23T04:31:37.420Z,40
2017-07-23T04:32:17.915Z,40
2017-07-23T04:32:59.015Z,40
2017-07-23T04:33:39.541Z,45
2017-07-23T04:34:20.101Z,45
2017-07-23T04:35:00.673Z,45
2017-07-23T04:35:42.095Z,45
2017-07-23T04:36:25.142Z,45
2017-07-23T04:37:08.012Z,45
2017-07-23T04:37:50.812Z,45
2017-07-23T04:38:33.515Z,40
2017-07-23T04:39:16.212Z,40
2017-07-23T04:43:33.769Z,45
2017-07-23T04:44:15.946Z,45
2017-07-23T04:44:58.212Z,45
2017-07-23T04:48:13.912Z,45
2017-07-23T04:48:57.073Z,50
2017-07-23T04:49:39.520Z,50
2017-07-23T04:50:22.191Z,55
2017-07-23T04:51:04.878Z,55
2017-07-23T04:51:47.191Z,55
2017-07-23T04:52:29.378Z,60
2017-07-23T04:53:11.694Z,60
2017-07-23T04:53:54.364Z,60
2017-07-23T04:54:36.273Z,60
2017-07-23T04:55:18.581Z,60
2017-07-23T04:55:59.112Z,60
2017-07-23T04:56:39.645Z,60
2017-07-23T04:57:20.174Z,60
2017-07-23T04:58:00.690Z,65
2017-07-23T04:58:41.239Z,65
2017-07-23T04:59:21.754Z,65
2017-07-23T05:00:02.279Z,70
2017-07-23T05:00:42.782Z,70
2017-07-23T05:01:23.413Z,70
2017-07-23T05:02:03.866Z,75
2017-07-23T05:02:44.490Z,75
2017-07-23T05:03:25.013Z,75
2017-07-23T05:04:05.564Z,75
2017-07-23T05:04:46.058Z,75
2017-07-23T05:05:26.585Z,75
2017-07-23T05:06:07.099Z,75
2017-07-23T05:06:47.631Z,75
2017-07-23T05:07:28.189Z,75
2017-07-23T05:08:08.720Z,75
2017-07-23T05:08:49.533Z,75
2017-07-23T05:09:30.048Z,75
2017-07-23T05:10:10.581Z,75
2017-07-23T05:10:51.093Z,80
2017-07-23T05:11:31.629Z,80
2017-07-23T05:12:12.145Z,85
2017-07-23T05:12:52.664Z,85
2017-07-23T05:13:33.217Z,90
2017-07-23T05:14:13.762Z,95
2017-07-23T05:14:54.254Z,90
2017-07-23T05:15:34.773Z,90
2017-07-23T05:16:15.350Z,95
2017-07-23T05:16:55.895Z,95
2017-07-23T05:17:36.467Z,95
2017-07-23T05:18:17.034Z,95
2017-07-23T05:18:57.455Z,100
2017-07-23T05:19:38.070Z,95
2017-07-23T05:20:18.649Z,95
2017-07-23T05:20:59.178Z,100
2017-07-23T05:21:39.697Z,95
2017-07-23T05:22:20.191Z,95
2017-07-23T05:23:00.706Z,100
2017-07-23T05:23:41.243Z,100
2017-07-23T05:24:21.769Z,95
2017-07-23T05:25:02.261Z,100
2017-07-23T05:25:42.809Z,100
2017-07-23T05:26:23.332Z,105
2017-07-23T05:27:03.827Z,100
2017-07-23T05:27:44.336Z,100
2017-07-23T05:28:24.842Z,105
2017-07-23T05:29:05.391Z,105
2017-07-23T05:29:45.906Z,110
2017-07-23T05:30:26.442Z,110
2017-07-23T05:31:06.939Z,115
2017-07-23T05:31:47.462Z,125
2017-07-23T05:32:27.993Z,130
2017-07-23T05:33:08.503Z,130
2017-07-23T05:33:49.016Z,130
2017-07-23T05:34:29.533Z,130
2017-07-23T05:35:10.046Z,135
2017-07-23T05:35:50.575Z,140
2017-07-23T05:36:31.087Z,140
2017-07-23T05:37:11.592Z,135
2017-07-23T05:37:52.253Z,140
2017-07-23T05:38:32.761Z,140
2017-07-23T05:39:13.270Z,145
2017-07-23T05:39:53.803Z,145
2017-07-23T05:40:34.322Z,145
2017-07-23T05:41:14.885Z,145
2017-07-23T05:41:55.413Z,140
2017-07-23T05:42:35.957Z,135
2017-07-23T05:43:16.509Z,125
2017-07-23T05:43:56.998Z,120
2017-07-23T05:44:37.534Z,115
2017-07-23T05:45:18.070Z,115
2017-07-23T05:45:58.571Z,120
2017-07-23T05:46:39.080Z,125
2017-07-23T05:47:19.593Z,125
2017-07-23T05:48:00.099Z,125
2017-07-23T05:48:41.325Z,125
2017-07-23T05:49:21.858Z,125
2017-07-23T05:50:02.377Z,125
2017-07-23T05:50:42.898Z,130
2017-07-23T05:51:25.005Z,135
2017-07-23T05:52:05.532Z,135
2017-07-23T05:52:46.068Z,130
2017-07-23T05:53:26.589Z,120
2017-07-23T05:54:07.082Z,115
2017-07-23T05:54:47.613Z,110
2017-07-23T05:55:28.203Z,105
2017-07-23T05:56:08.736Z,100
2017-07-23T05:56:49.273Z,105
2017-07-23T05:57:29.809Z,105
2017-07-23T05:58:10.349Z,110
2017-07-23T05:58:50.886Z,110
2017-07-23T05:59:31.406Z,110
2017-07-23T06:00:11.935Z,110
2017-07-23T06:00:52.472Z,110
2017-07-23T06:01:33.003Z,115
2017-07-23T06:02:13.530Z,115
2017-07-23T06:02:54.058Z,125
2017-07-23T06:03:34.581Z,130
2017-07-23T06:04:15.159Z,135
2017-07-23T06:04:55.630Z,130
2017-07-23T06:05:36.161Z,120
2017-07-23T06:06:16.693Z,115
2017-07-23T06:06:57.219Z,115
2017-07-23T06:07:37.874Z,120
2017-07-23T06:08:18.397Z,145
2017-07-23T06:08:58.917Z,170
2017-07-23T06:09:39.423Z,200
2017-07-23T06:10:19.969Z,220
2017-07-23T06:11:00.451Z,235
2017-07-23T06:11:41.462Z,225
2017-07-23T06:12:21.992Z,215
2017-07-23T06:13:02.523Z,215
2017-07-23T06:13:43.060Z,215
2017-07-23T06:14:23.590Z,210
2017-07-23T06:15:04.136Z,200
2017-07-23T06:15:44.673Z,205
2017-07-23T06:16:25.203Z,200
2017-07-23T06:17:05.908Z,210
2017-07-23T06:17:46.412Z,210
2017-07-23T06:18:26.928Z,210
2017-07-23T06:19:07.446Z,215
2017-07-23T06:19:47.967Z,220
2017-07-23T06:20:28.544Z,225
2017-07-23T06:21:09.163Z,210
2017-07-23T06:21:49.963Z,245
2017-07-23T06:22:30.750Z,245
2017-07-23T06:23:11.293Z,250
2017-07-23T06:23:51.882Z,250
2017-07-23T06:24:32.442Z,270
2017-07-23T06:25:13.113Z,280
2017-07-23T06:25:53.625Z,290
2017-07-23T06:26:34.123Z,295
2017-07-23T06:27:14.866Z,295
2017-07-23T06:27:55.407Z,295
2017-07-23T06:28:35.911Z,290
2017-07-23T06:29:16.539Z,285
2017-07-23T06:29:57.575Z,290
2017-07-23T06:30:38.238Z,265
2017-07-23T06:31:18.798Z,265
2017-07-23T06:31:59.432Z,260
2017-07-23T06:32:40.053Z,265
2017-07-23T06:33:20.621Z,270
2017-07-23T06:34:01.253Z,270
2017-07-23T06:34:41.909Z,275
2017-07-23T06:35:22.569Z,275
2017-07-23T06:36:03.158Z,280
2017-07-23T06:36:43.970Z,280
2017-07-23T06:37:24.501Z,290
2017-07-23T06:38:05.219Z,305
2017-07-23T06:38:46.054Z,305
2017-07-23T06:39:26.659Z,290
2017-07-23T06:40:07.189Z,290
2017-07-23T06:40:47.708Z,300
2017-07-23T06:41:28.226Z,310
2017-07-23T06:42:08.883Z,315
2017-07-23T06:42:49.428Z,335
2017-07-23T06:43:30.058Z,350
2017-07-23T06:44:10.807Z,360
2017-07-23T06:44:51.656Z,370
2017-07-23T06:45:32.291Z,375
2017-07-23T06:46:12.924Z,385
2017-07-23T06:46:53.739Z,370
2017-07-23T06:47:34.331Z,400
2017-07-23T06:48:15.242Z,405
2017-07-23T06:48:55.767Z,410
2017-07-23T06:49:36.367Z,410
2017-07-23T06:50:16.886Z,410
2017-07-23T06:50:57.608Z,410
2017-07-23T06:51:38.101Z,395
2017-07-23T06:52:18.624Z,410
2017-07-23T06:52:59.264Z,400
2017-07-23T06:53:39.794Z,400
2017-07-23T06:54:20.309Z,375
2017-07-23T06:55:01.073Z,375
2017-07-23T06:55:41.635Z,390
2017-07-23T06:56:22.163Z,375
2017-07-23T06:57:02.953Z,355
2017-07-23T06:57:43.481Z,355
2017-07-23T06:58:23.993Z,390
2017-07-23T06:59:04.736Z,375
2017-07-23T06:59:45.581Z,345
2017-07-23T07:00:26.101Z,335
2017-07-23T07:01:06.622Z,330
2017-07-23T07:01:47.155Z,320
2017-07-23T07:02:27.658Z,315
2017-07-23T07:03:08.179Z,310
2017-07-23T07:03:48.703Z,310
2017-07-23T07:04:29.263Z,305
2017-07-23T07:05:09.767Z,300
2017-07-23T07:05:50.288Z,300
2017-07-23T07:06:30.774Z,290
2017-07-23T07:07:11.296Z,290
2017-07-23T07:07:51.818Z,290
2017-07-23T07:08:32.677Z,290
2017-07-23T07:09:13.240Z,290
2017-07-23T07:09:53.850Z,285
2017-07-23T07:10:34.441Z,280
2017-07-23T07:11:15.072Z,280
2017-07-23T07:11:55.856Z,285
2017-07-23T07:12:36.440Z,295
2017-07-23T07:13:17.149Z,280
2017-07-23T07:13:57.779Z,285
2017-07-23T07:14:38.549Z,295
2017-07-23T07:15:19.256Z,280
2017-07-23T07:15:59.962Z,275
2017-07-23T07:16:40.523Z,265
2017-07-23T07:17:21.038Z,255
2017-07-23T07:18:01.697Z,260
2017-07-23T07:18:42.416Z,265
2017-07-23T07:19:22.938Z,265
2017-07-23T07:20:03.491Z,265
2017-07-23T07:20:44.034Z,255
2017-07-23T07:21:24.530Z,250
2017-07-23T07:22:05.323Z,250
2017-07-23T07:22:46.035Z,255
2017-07-23T07:23:26.571Z,260
2017-07-23T07:24:07.106Z,265
2017-07-23T07:24:47.805Z,265
2017-07-23T07:25:28.475Z,260
2017-07-23T07:26:09.142Z,255
2017-07-23T07:26:50.049Z,255
2017-07-23T07:27:30.676Z,260
2017-07-23T07:28:11.314Z,250
2017-07-23T07:28:51.856Z,245
2017-07-23T07:29:32.376Z,245
2017-07-23T07:30:12.881Z,250
2017-07-23T07:30:53.408Z,250
2017-07-23T07:31:33.918Z,250
2017-07-23T07:32:14.485Z,265
2017-07-23T07:32:55.122Z,265
2017-07-23T07:33:35.729Z,275
2017-07-23T07:34:16.291Z,280
2017-07-23T07:34:57.096Z,280
2017-07-23T07:35:37.969Z,280
2017-07-23T07:36:18.480Z,285
2017-07-23T07:36:59.347Z,290
2017-07-23T07:37:40.099Z,280
2017-07-23T07:38:20.716Z,275
2017-07-23T07:39:01.439Z,265
2017-07-23T07:39:41.957Z,255
2017-07-23T07:40:22.489Z,250
2017-07-23T07:41:03.038Z,245
2017-07-23T07:41:43.571Z,250
2017-07-23T07:42:24.113Z,250
2017-07-23T07:43:04.633Z,265
2017-07-23T07:43:45.177Z,265
2017-07-23T07:44:25.703Z,270
2017-07-23T07:45:06.257Z,270
2017-07-23T07:45:46.788Z,275
2017-07-23T07:46:27.290Z,265
2017-07-23T07:47:07.810Z,285
2017-07-23T07:47:48.320Z,270
2017-07-23T07:48:28.842Z,270
2017-07-23T07:49:09.384Z,280
2017-07-23T07:49:49.908Z,280
2017-07-23T07:50:30.444Z,290
2017-07-23T07:51:10.968Z,290
2017-07-23T07:51:51.513Z,290
2017-07-23T07:52:32.035Z,285
2017-07-23T07:53:12.678Z,270
2017-07-23T07:53:53.211Z,275
2017-07-23T07:54:33.775Z,290
2017-07-23T07:55:14.347Z,290
2017-07-23T07:55:54.917Z,295
2017-07-23T07:56:35.467Z,320
2017-07-23T07:57:15.987Z,345
2017-07-23T07:57:56.755Z,355
2017-07-23T07:58:37.857Z,345
2017-07-23T07:59:18.423Z,350
2017-07-23T07:59:58.936Z,365
2017-07-23T08:00:39.465Z,380
2017-07-23T08:01:19.986Z,385
2017-07-23T08:02:00.514Z,415
2017-07-23T08:02:41.041Z,425
2017-07-23T08:03:21.548Z,410
2017-07-23T08:04:02.062Z,395
2017-07-23T08:04:42.571Z,400
2017-07-23T08:05:23.106Z,390
2017-07-23T08:06:03.645Z,380
2017-07-23T08:06:44.137Z,415
2017-07-23T08:07:24.658Z,405
2017-07-23T08:08:05.174Z,405
2017-07-23T08:08:45.833Z,410
2017-07-23T08:09:26.366Z,420
2017-07-23T08:10:06.911Z,475
2017-07-23T08:10:47.445Z,465
2017-07-23T08:11:27.992Z,470
2017-07-23T08:12:08.551Z,570
2017-07-23T08:12:49.062Z,760
2017-07-23T08:13:29.591Z,1135
2017-07-23T08:14:10.123Z,1610
2017-07-23T08:14:50.671Z,625
2017-07-23T08:15:31.214Z,840
2017-07-23T08:16:11.738Z,1550
2017-07-23T08:16:52.263Z,1945
2017-07-23T08:17:32.790Z,2350
2017-07-23T08:18:13.317Z,2730
2017-07-23T08:18:53.835Z,2525
2017-07-23T08:19:34.538Z,2150
2017-07-23T08:20:15.084Z,1475
2017-07-23T08:20:55.624Z,2270
2017-07-23T08:21:36.140Z,2835
2017-07-23T08:22:16.638Z,1270
2017-07-23T08:22:57.168Z,1670
2017-07-23T08:23:37.695Z,905
2017-07-23T08:24:18.220Z,555
2017-07-23T08:24:58.748Z,1580
2017-07-23T08:25:39.292Z,1275
2017-07-23T08:26:19.843Z,1755
2017-07-23T08:27:00.407Z,1050
2017-07-23T08:27:40.937Z,2790
2017-07-23T08:28:21.402Z,2735
2017-07-23T08:29:01.944Z,2720
2017-07-23T08:29:42.448Z,2720
2017-07-23T08:30:22.979Z,2755
2017-07-23T08:31:03.515Z,2785
2017-07-23T08:31:44.030Z,2835
2017-07-23T08:32:24.507Z,2900
2017-07-23T08:33:05.056Z,825
2017-07-23T08:33:45.545Z,2990
2017-07-23T08:34:26.093Z,365
2017-07-23T08:35:06.726Z,535
2017-07-23T08:35:47.302Z,465
2017-07-23T08:36:27.819Z,2860
2017-07-23T08:37:08.329Z,2800
2017-07-23T08:37:48.833Z,2920
2017-07-23T08:38:29.368Z,3015
2017-07-23T08:39:09.931Z,2100
2017-07-23T08:39:50.457Z,3025
2017-07-23T08:40:30.999Z,2985
2017-07-23T08:41:11.552Z,2990
2017-07-23T08:41:52.066Z,2875
2017-07-23T08:42:32.591Z,2830
2017-07-23T08:43:13.139Z,2880
2017-07-23T08:43:53.687Z,1035
2017-07-23T08:44:34.203Z,3100
2017-07-23T08:45:14.750Z,2255
2017-07-23T08:45:55.276Z,555
2017-07-23T08:46:36.193Z,2975
2017-07-23T08:47:16.723Z,2690
2017-07-23T08:47:57.258Z,2880
2017-07-23T08:48:37.808Z,2990
2017-07-23T08:49:18.342Z,320
2017-07-23T08:49:58.926Z,3175
2017-07-23T08:50:39.502Z,3240
2017-07-23T08:51:20.056Z,3335
2017-07-23T08:52:00.560Z,360
2017-07-23T08:52:41.134Z,3285
2017-07-23T08:53:21.667Z,2555
2017-07-23T08:54:02.274Z,3185
2017-07-23T08:54:42.803Z,3220
2017-07-23T08:55:23.330Z,3225
2017-07-23T08:56:03.858Z,3220
2017-07-23T08:56:44.433Z,3260
2017-07-23T08:57:24.952Z,3235
2017-07-23T08:58:05.517Z,3265
2017-07-23T08:58:46.065Z,2005
2017-07-23T08:59:26.613Z,3200
2017-07-23T09:00:07.168Z,555
2017-07-23T09:00:48.112Z,3245
2017-07-23T09:01:29.385Z,3200
2017-07-23T09:02:10.008Z,3210
2017-07-23T09:02:50.537Z,3290
2017-07-23T09:03:31.689Z,3320
2017-07-23T09:04:12.237Z,3320
2017-07-23T09:04:52.770Z,3270
2017-07-23T09:05:33.469Z,3220
2017-07-23T09:06:14.002Z,3185
2017-07-23T09:06:54.554Z,3140
2017-07-23T09:07:35.236Z,3110
2017-07-23T09:08:15.874Z,3170
2017-07-23T09:08:56.412Z,3250
2017-07-23T09:09:36.937Z,3350
2017-07-23T09:10:17.592Z,3430
2017-07-23T09:10:58.257Z,3465
2017-07-23T09:11:39.220Z,3470
2017-07-23T09:12:19.828Z,3460
2017-07-23T09:13:00.813Z,3430
2017-07-23T09:13:41.789Z,3360
2017-07-23T09:14:22.620Z,3245
2017-07-23T09:15:03.288Z,3185
2017-07-23T09:15:44.374Z,3170
2017-07-23T09:16:25.119Z,3320
2017-07-23T09:17:05.885Z,3265
2017-07-23T09:17:46.747Z,3355
2017-07-23T09:18:27.736Z,3495
2017-07-23T09:19:08.851Z,2840
2017-07-23T09:19:49.414Z,1960
2017-07-23T09:20:30.124Z,1455
2017-07-23T09:21:10.675Z,470
2017-07-23T09:21:51.253Z,455
2017-07-23T09:22:31.983Z,780
2017-07-23T09:23:12.525Z,480
2017-07-23T09:23:53.541Z,680
2017-07-23T09:24:34.272Z,705
2017-07-23T09:25:15.075Z,660
2017-07-23T09:25:56.139Z,655
2017-07-23T09:26:36.733Z,680
2017-07-23T09:27:17.523Z,650
2017-07-23T09:27:58.605Z,675
2017-07-23T09:28:39.243Z,710
2017-07-23T09:29:19.794Z,595
2017-07-23T09:30:00.474Z,625
2017-07-23T09:30:41.322Z,2840
2017-07-23T09:31:21.855Z,2665
2017-07-23T09:32:02.463Z,3405
2017-07-23T09:32:43.358Z,635
2017-07-23T09:33:24.138Z,575
2017-07-23T09:34:05.092Z,570
2017-07-23T09:34:45.880Z,530
2017-07-23T09:35:26.967Z,465
2017-07-23T09:36:07.517Z,540
2017-07-23T09:36:48.468Z,665
2017-07-23T09:37:29.339Z,490
2017-07-23T09:38:09.876Z,715
2017-07-23T09:38:50.446Z,570
2017-07-23T09:39:30.999Z,950
2017-07-23T09:40:11.663Z,1245
2017-07-23T09:40:52.209Z,1295
2017-07-23T09:41:32.985Z,1425
2017-07-23T09:42:13.838Z,1375
2017-07-23T09:42:54.798Z,1780
2017-07-23T09:43:35.558Z,620
2017-07-23T09:44:16.197Z,510
2017-07-23T09:44:56.946Z,510
2017-07-23T09:45:37.741Z,555
2017-07-23T09:46:18.539Z,1410
2017-07-23T09:46:59.298Z,480
2017-07-23T09:47:39.846Z,420
2017-07-23T09:48:20.607Z,630
2017-07-23T09:49:01.495Z,2600
2017-07-23T09:49:42.355Z,3845
2017-07-23T09:50:22.987Z,3395
2017-07-23T09:51:03.622Z,2875